Time;durP1;ratioP1;P1;durP2;ratioP2;P2;SDS_P1;SDS_P2;PMS_P1;PMS_P2;Temp;Humidity;BMP_temperature;BMP_pressure;BME280_temperature;BME280_humidity;BME280_pressure;Samples;Min_cycle;Max_cycle;Signal;HPM_P1;HPM_P2
2021/03/17 00:01:02;;;;;;;104.90;18.70;;;;;;;2.70;72.60;100209.40;1678835;85;21207;-61
2021/03/17 00:03:55;;;;;;;104.75;18.48;;;;;;;2.66;72.66;100209.20;1678213;85;21183;-61
2021/03/17 00:06:46;;;;;;;116.55;18.95;;;;;;;2.65;72.80;100203.66;1678203;85;21247;-61
2021/03/17 00:09:37;;;;;;;101.12;15.98;;;;;;;2.64;72.85;100211.51;1679403;85;21637;-63
2021/03/17 00:12:28;;;;;;;109.25;17.62;;;;;;;2.59;72.89;100209.19;1678274;85;21298;-61
2021/03/17 00:15:21;;;;;;;114.50;17.67;;;;;;;2.55;73.04;100204.28;1679357;85;21183;-62
2021/03/17 00:18:14;;;;;;;111.57;18.12;;;;;;;2.51;73.21;100208.78;1678361;85;21191;-61
2021/03/17 00:21:05;;;;;;;135.90;19.55;;;;;;;2.44;73.30;100219.09;1678213;85;21297;-61
2021/03/17 00:23:57;;;;;;;135.28;20.85;;;;;;;2.38;73.43;100205.69;1679493;85;21338;-61
2021/03/17 00:26:49;;;;;;;145.20;19.48;;;;;;;2.34;73.63;100220.51;1678182;85;21246;-62
2021/03/17 00:29:40;;;;;;;146.93;18.62;;;;;;;2.34;73.73;100206.30;1679397;85;21183;-62
2021/03/17 00:32:31;;;;;;;143.17;19.45;;;;;;;2.32;73.78;100205.55;1678246;85;21214;-64
2021/03/17 00:35:23;;;;;;;163.65;23.40;;;;;;;2.29;73.85;100192.00;1679600;85;21338;-61
2021/03/17 00:38:14;;;;;;;144.62;18.87;;;;;;;2.27;73.97;100189.96;1678338;84;21191;-63
2021/03/17 00:41:06;;;;;;;171.47;21.00;;;;;;;2.29;73.99;100183.80;1677837;85;21191;-62
2021/03/17 00:43:57;;;;;;;153.90;20.45;;;;;;;2.30;73.96;100185.44;1679495;85;21274;-61
2021/03/17 00:46:49;;;;;;;155.85;20.27;;;;;;;2.32;73.96;100181.02;1677840;85;21622;-62
2021/03/17 00:49:24;;;;;;;145.95;17.45;;;;;;;2.33;73.96;100175.39;1675069;85;21706;-61
2021/03/17 00:51:57;;;;;;;145.53;17.87;;;;;;;2.31;73.95;100177.23;1669282;85;21306;-62
2021/03/17 00:54:48;;;;;;;127.95;18.77;;;;;;;2.30;74.09;100174.27;1678180;85;21818;-61
2021/03/17 00:57:29;;;;;;;131.97;18.57;;;;;;;2.32;74.07;100177.14;1657751;85;21290;-61
2021/03/17 01:00:04;;;;;;;142.95;19.90;;;;;;;2.35;74.03;100173.10;1679663;85;21317;-62
2021/03/17 01:02:38;;;;;;;123.33;19.67;;;;;;;2.34;74.02;100168.84;1678453;85;21211;-61
2021/03/17 01:05:13;;;;;;;153.72;20.27;;;;;;;2.34;74.08;100174.49;1679565;85;21153;-63
2021/03/17 01:07:46;;;;;;;144.35;19.15;;;;;;;2.34;74.11;100167.55;1678129;85;21354;-61
2021/03/17 01:10:37;;;;;;;147.80;18.77;;;;;;;2.33;74.09;100172.36;1679534;85;21321;-61
2021/03/17 01:13:11;;;;;;;148.97;18.67;;;;;;;2.33;74.08;100175.39;1678521;85;21199;-63
2021/03/17 01:15:44;;;;;;;165.37;16.10;;;;;;;2.26;74.16;100172.79;1679679;85;21167;-61
2021/03/17 01:18:17;;;;;;;166.13;19.80;;;;;;;2.23;74.28;100179.41;1679088;85;21317;-62
2021/03/17 01:20:50;;;;;;;178.00;19.92;;;;;;;2.20;74.45;100175.73;1679551;85;21187;-62
2021/03/17 01:23:24;;;;;;;174.50;20.50;;;;;;;2.16;74.54;100168.59;1678839;85;21210;-62
2021/03/17 01:25:57;;;;;;;165.73;19.77;;;;;;;2.15;74.57;100160.45;1679509;85;21364;-62
2021/03/17 01:28:32;;;;;;;148.75;18.32;;;;;;;2.18;74.63;100168.49;1678486;85;21831;-62
2021/03/17 01:31:05;;;;;;;127.70;15.03;;;;;;;2.19;74.63;100164.55;1679898;85;21318;-61
2021/03/17 01:33:39;;;;;;;174.00;18.52;;;;;;;2.17;74.64;100161.69;1678526;85;21313;-61
2021/03/17 01:36:12;;;;;;;171.65;20.25;;;;;;;2.11;74.72;100155.10;1679580;85;21278;-60
2021/03/17 01:38:45;;;;;;;174.00;21.62;;;;;;;2.06;74.85;100175.17;1678601;85;21239;-61
2021/03/17 01:41:20;;;;;;;173.30;21.25;;;;;;;2.02;75.04;100161.63;1679521;85;21219;-61
2021/03/17 01:43:53;;;;;;;203.42;21.33;;;;;;;1.97;75.28;100154.58;1678701;85;21391;-62
2021/03/17 01:46:26;;;;;;;184.18;23.65;;;;;;;1.92;75.44;100163.03;1679495;85;21350;-61
2021/03/17 01:49:00;;;;;;;183.97;22.73;;;;;;;1.89;75.60;100152.87;1678517;85;21298;-61
2021/03/17 01:51:33;;;;;;;179.82;23.83;;;;;;;1.85;75.78;100150.09;1679469;85;21199;-63
2021/03/17 01:54:06;;;;;;;210.10;23.52;;;;;;;1.82;75.93;100139.92;1678480;85;21352;-62
2021/03/17 01:56:39;;;;;;;151.35;22.37;;;;;;;1.81;76.08;100146.02;1681158;85;21313;-61
2021/03/17 01:59:13;;;;;;;199.42;22.37;;;;;;;1.79;76.24;100152.19;1682061;85;21207;-62
2021/03/17 02:01:46;;;;;;;140.18;20.97;;;;;;;1.79;76.33;100147.83;1682922;85;21332;-61
2021/03/17 02:04:20;;;;;;;191.18;23.83;;;;;;;1.80;76.42;100140.92;1681958;85;21884;-62
2021/03/17 02:06:53;;;;;;;205.32;24.55;;;;;;;1.77;76.59;100138.05;1683073;85;21285;-61
2021/03/17 02:09:27;;;;;;;201.20;26.15;;;;;;;1.79;76.73;100137.50;1682081;85;21270;-61
2021/03/17 02:12:13;;;;;;;205.12;28.15;;;;;;;1.80;76.82;100137.89;1682837;85;21293;-61
2021/03/17 02:14:54;;;;;;;214.50;27.62;;;;;;;1.77;76.88;100147.53;1681423;85;21202;-61
2021/03/17 02:17:28;;;;;;;230.10;27.55;;;;;;;1.72;77.04;100141.81;1680568;85;21333;-61
2021/03/17 02:20:30;;;;;;;187.88;27.98;;;;;;;1.69;77.20;100132.49;1681683;85;21313;-60
2021/03/17 02:23:13;;;;;;;196.57;28.27;;;;;;;1.69;77.37;100129.91;1681513;85;21207;-61
2021/03/17 02:26:27;;;;;;;231.85;29.63;;;;;;;1.67;77.41;100129.62;1681025;85;21325;-61
2021/03/17 02:29:23;;;;;;;206.93;27.13;;;;;;;1.67;77.48;100129.13;1681756;85;21312;-61
2021/03/17 02:32:14;;;;;;;219.97;29.80;;;;;;;1.68;77.50;100128.69;1614585;88;21734;-60
2021/03/17 02:34:48;;;;;;;185.43;28.70;;;;;;;1.65;77.63;100116.78;1606691;88;21352;-61
2021/03/17 02:37:23;;;;;;;264.98;35.03;;;;;;;1.62;77.88;100115.68;1682936;85;21167;-61
2021/03/17 02:40:24;;;;;;;227.28;28.67;;;;;;;1.62;78.14;100117.42;1681312;84;21215;-61
2021/03/17 02:43:16;;;;;;;221.35;30.55;;;;;;;1.60;78.33;100119.26;1682851;85;21282;-60
2021/03/17 02:45:58;;;;;;;197.02;27.73;;;;;;;1.55;78.41;100112.22;1682717;85;22191;-60
2021/03/17 02:48:52;;;;;;;245.82;27.77;;;;;;;1.52;78.51;100114.95;1682244;85;21321;-60
2021/03/17 02:51:46;;;;;;;223.72;28.62;;;;;;;1.47;78.70;100113.91;1680375;85;21297;-60
2021/03/17 02:54:22;;;;;;;216.15;25.95;;;;;;;1.46;79.16;100112.72;1682574;85;21293;-61
2021/03/17 02:57:08;;;;;;;242.75;25.65;;;;;;;1.42;79.37;100109.45;1675454;85;21302;-60
2021/03/17 02:59:41;;;;;;;215.62;25.62;;;;;;;1.41;79.54;100101.33;1671175;86;21313;-61
2021/03/17 03:02:14;;;;;;;207.83;26.97;;;;;;;1.38;79.59;100099.39;1672720;86;21300;-62
2021/03/17 03:04:48;;;;;;;188.55;24.07;;;;;;;1.33;79.70;100107.38;1672051;86;21215;-60
2021/03/17 03:07:23;;;;;;;209.30;23.50;;;;;;;1.27;79.88;100104.66;1672694;86;21232;-60
2021/03/17 03:09:56;;;;;;;208.78;22.65;;;;;;;1.28;80.04;100109.36;1671475;86;21303;-61
2021/03/17 03:12:30;;;;;;;190.07;23.50;;;;;;;1.28;80.07;100094.73;1672893;86;21353;-62
2021/03/17 03:15:04;;;;;;;214.45;24.85;;;;;;;1.30;80.03;100095.47;1671935;86;21288;-61
2021/03/17 03:17:37;;;;;;;205.67;22.45;;;;;;;1.32;79.96;100089.77;1672214;86;21290;-61
2021/03/17 03:20:12;;;;;;;180.67;24.75;;;;;;;1.36;79.96;100089.97;1671885;86;21313;-60
2021/03/17 03:22:46;;;;;;;189.47;22.42;;;;;;;1.37;79.82;100077.92;1672524;86;21177;-63
2021/03/17 03:25:19;;;;;;;207.52;21.52;;;;;;;1.39;79.74;100076.08;1671975;86;21302;-62
2021/03/17 03:27:56;;;;;;;185.00;22.27;;;;;;;1.39;79.59;100074.80;1651714;86;21384;-61
2021/03/17 03:30:30;;;;;;;194.60;21.70;;;;;;;1.37;79.48;100075.34;1671875;86;21355;-61
2021/03/17 03:33:03;;;;;;;163.57;22.17;;;;;;;1.33;79.52;100079.84;1672564;86;21151;-61
2021/03/17 03:35:37;;;;;;;171.93;20.85;;;;;;;1.35;79.47;100078.01;1671823;86;21306;-62
2021/03/17 03:38:12;;;;;;;203.75;24.92;;;;;;;1.34;79.29;100064.73;1672834;86;21188;-60
2021/03/17 03:40:45;;;;;;;163.50;21.17;;;;;;;1.35;79.26;100065.56;1671633;86;21311;-61
2021/03/17 03:43:20;;;;;;;168.05;17.90;;;;;;;1.34;79.15;100057.44;1672672;86;21844;-61
2021/03/17 03:45:54;;;;;;;114.45;15.50;;;;;;;1.33;79.03;100059.66;1671878;86;21302;-65
2021/03/17 03:48:28;;;;;;;204.25;20.20;;;;;;;1.32;78.91;100061.86;1672746;86;21270;-62
2021/03/17 03:51:02;;;;;;;165.82;19.23;;;;;;;1.30;78.83;100055.95;1671914;86;21298;-61
2021/03/17 03:53:59;;;;;;;159.55;17.12;;;;;;;1.26;78.75;100047.56;1672825;86;21290;-62
2021/03/17 03:56:58;;;;;;;175.53;20.00;;;;;;;1.26;78.75;100051.89;1671245;86;21207;-61
2021/03/17 03:59:33;;;;;;;194.25;21.07;;;;;;;1.28;78.93;100047.02;1671348;86;21333;-64
2021/03/17 04:02:06;;;;;;;170.47;20.65;;;;;;;1.32;78.72;100039.48;1672525;86;21278;-62
2021/03/17 04:04:42;;;;;;;183.78;21.97;;;;;;;1.34;78.58;100042.80;1672678;86;21330;-62
2021/03/17 04:07:15;;;;;;;168.75;19.05;;;;;;;1.34;78.49;100032.94;1672525;86;21282;-61
2021/03/17 04:09:52;;;;;;;171.00;18.77;;;;;;;1.37;78.39;100057.28;1651422;86;21381;-61
2021/03/17 04:12:24;;;;;;;185.07;18.17;;;;;;;1.36;78.22;100039.69;1672629;86;21167;-61
2021/03/17 04:14:59;;;;;;;169.83;20.23;;;;;;;1.34;78.29;100032.48;1673215;86;21319;-61
2021/03/17 04:17:44;;;;;;;173.53;18.60;;;;;;;1.38;78.32;100027.53;1672352;86;21160;-61
2021/03/17 04:20:23;;;;;;;190.53;20.37;;;;;;;1.41;78.14;100038.62;1671878;86;21298;-62
2021/03/17 04:22:56;;;;;;;195.43;21.40;;;;;;;1.40;78.01;100047.27;1651849;86;21282;-62
2021/03/17 04:25:29;;;;;;;178.12;21.23;;;;;;;1.38;78.04;100043.48;1672466;86;21321;-63
2021/03/17 04:28:02;;;;;;;209.65;22.17;;;;;;;1.38;77.94;100045.58;1672623;86;21243;-60
2021/03/17 04:30:35;;;;;;;183.65;22.62;;;;;;;1.39;77.98;100034.81;1672174;86;21192;-58
2021/03/17 04:33:09;;;;;;;199.68;21.52;;;;;;;1.43;78.00;100055.68;1650140;86;21278;-59
2021/03/17 04:35:45;;;;;;;158.35;17.12;;;;;;;1.44;77.93;100032.82;1672422;86;21239;-58
2021/03/17 04:38:19;;;;;;;170.55;18.60;;;;;;;1.49;78.01;100046.30;1672344;86;21286;-58
2021/03/17 04:40:52;;;;;;;161.20;17.80;;;;;;;1.59;77.80;100033.28;1671876;86;21215;-58
2021/03/17 04:43:26;;;;;;;178.23;21.93;;;;;;;1.66;77.52;100033.75;1672887;86;21314;-59
2021/03/17 04:46:02;;;;;;;154.12;19.20;;;;;;;1.73;77.46;100035.08;1672743;86;21309;-58
2021/03/17 04:48:36;;;;;;;166.85;20.90;;;;;;;1.79;77.19;100025.72;1672675;86;21270;-59
2021/03/17 04:51:09;;;;;;;157.90;19.10;;;;;;;1.87;77.15;100028.67;1650678;86;21310;-58
2021/03/17 04:53:42;;;;;;;179.70;19.57;;;;;;;1.95;76.87;100020.89;1651741;86;21203;-59
2021/03/17 04:56:16;;;;;;;165.30;19.77;;;;;;;2.02;76.40;100031.69;1671601;86;21274;-59
2021/03/17 04:58:49;;;;;;;176.57;18.53;;;;;;;2.01;76.11;100018.39;1672776;86;21215;-58
2021/03/17 05:01:23;;;;;;;163.40;18.85;;;;;;;1.99;76.15;100021.07;1671777;86;21330;-59
2021/03/17 05:03:57;;;;;;;173.95;20.48;;;;;;;2.04;75.92;100029.39;1672747;86;21706;-59
2021/03/17 05:06:32;;;;;;;147.57;18.25;;;;;;;2.01;75.63;100026.97;1672457;86;21191;-59
2021/03/17 05:09:06;;;;;;;179.20;19.98;;;;;;;2.00;75.75;100024.49;1670781;86;21385;-59
2021/03/17 05:11:39;;;;;;;181.87;18.90;;;;;;;2.04;75.78;100036.30;1667875;86;21548;-59
2021/03/17 05:14:15;;;;;;;187.95;23.67;;;;;;;2.05;75.52;100033.61;1668519;86;21199;-58
2021/03/17 05:16:50;;;;;;;204.23;22.07;;;;;;;2.05;75.44;100028.94;1672161;86;21223;-58
2021/03/17 05:19:23;;;;;;;183.22;18.62;;;;;;;2.06;75.51;100029.29;1673198;84;21159;-59
2021/03/17 05:21:59;;;;;;;195.27;18.03;;;;;;;2.11;75.39;100035.48;1668143;84;21274;-59
2021/03/17 05:24:32;;;;;;;169.20;20.45;;;;;;;2.11;75.07;100038.90;1668260;86;21288;-59
2021/03/17 05:27:08;;;;;;;165.07;21.00;;;;;;;2.05;74.89;100047.02;1647605;86;21231;-59
2021/03/17 05:29:42;;;;;;;173.75;20.82;;;;;;;1.98;75.11;100045.22;1695959;84;21422;-61
2021/03/17 05:32:16;;;;;;;180.97;20.27;;;;;;;1.96;75.19;100041.89;1697122;84;21294;-60
2021/03/17 05:35:17;;;;;;;199.45;21.40;;;;;;;1.96;75.16;100041.05;1697356;84;22043;-60
2021/03/17 05:37:51;;;;;;;201.12;19.67;;;;;;;1.94;75.10;100045.02;1743627;81;21396;-60
2021/03/17 05:40:25;;;;;;;211.60;19.92;;;;;;;1.93;75.06;100036.93;1734645;81;21191;-59
2021/03/17 05:43:02;;;;;;;204.75;22.73;;;;;;;1.90;75.04;100044.84;1761719;80;21368;-59
2021/03/17 05:45:38;;;;;;;191.18;20.60;;;;;;;1.89;75.09;100051.36;1752979;80;21211;-58
2021/03/17 05:48:16;;;;;;;218.82;22.17;;;;;;;1.85;75.13;100030.06;1773763;79;21175;-59
2021/03/17 05:50:50;;;;;;;182.45;18.90;;;;;;;1.85;75.18;100037.81;1728980;81;21198;-59
2021/03/17 05:53:23;;;;;;;210.17;20.40;;;;;;;1.87;75.17;100064.81;1780670;80;21476;-59
2021/03/17 06:00:16;;;;;;;198.57;20.55;;;;;;;1.90;75.21;100050.00;1804948;78;21183;-59
2021/03/17 06:02:49;;;;;;;161.15;18.32;;;;;;;2.01;75.30;100044.21;1803607;79;21542;-64
2021/03/17 06:05:25;;;;;;;209.60;23.00;;;;;;;2.11;74.99;100039.35;1805289;79;21294;-63
2021/03/17 06:08:13;;;;;;;214.80;23.35;;;;;;;2.13;74.79;100046.55;1807068;79;21279;-62
2021/03/17 06:10:49;;;;;;;197.47;20.40;;;;;;;2.15;74.63;100038.28;1804843;79;21294;-59
2021/03/17 06:13:24;;;;;;;175.25;22.10;;;;;;;2.16;74.54;100055.42;1805225;79;21321;-60
2021/03/17 06:16:00;;;;;;;192.75;20.27;;;;;;;2.18;74.40;100051.83;1804643;79;21190;-59
2021/03/17 06:18:39;;;;;;;198.65;19.80;;;;;;;2.17;74.39;100043.73;1805187;79;22036;-61
2021/03/17 06:21:22;;;;;;;176.72;20.35;;;;;;;2.20;74.33;100060.31;1804664;79;21164;-60
2021/03/17 06:23:52;;;;;;;205.00;19.27;;;;;;;2.21;74.23;100049.08;1804939;79;21592;-62
2021/03/17 06:26:28;;;;;;;210.43;22.52;;;;;;;2.18;74.23;100050.53;1776902;79;21183;-61
2021/03/17 06:29:01;;;;;;;217.40;21.97;;;;;;;2.22;74.36;100045.55;1804859;79;21934;-65
2021/03/17 06:31:34;;;;;;;226.60;28.85;;;;;;;2.26;74.18;100054.81;1804436;79;21305;-62
2021/03/17 06:34:08;;;;;;;214.72;24.12;;;;;;;2.26;74.04;100047.06;1805092;79;21537;-63
2021/03/17 06:36:54;;;;;;;232.72;24.35;;;;;;;2.32;74.20;100047.14;1803880;78;21395;-62
2021/03/17 06:39:35;;;;;;;196.72;25.02;;;;;;;2.32;74.20;100047.14;1801364;79;22044;-60
2021/03/17 06:42:11;;;;;;;208.02;23.07;;;;;;;2.36;73.87;100058.98;1800593;79;21302;-60
2021/03/17 06:44:46;;;;;;;228.22;29.87;;;;;;;2.31;73.61;100057.97;1801273;79;21478;-58
2021/03/17 06:47:23;;;;;;;201.65;31.07;;;;;;;2.28;73.67;100053.42;1748809;79;21172;-63
2021/03/17 06:49:56;;;;;;;190.05;23.18;;;;;;;2.23;73.83;100045.94;1801282;79;21286;-57
2021/03/17 06:52:37;;;;;;;172.65;24.80;;;;;;;2.25;73.94;100055.72;1800063;79;22067;-62
2021/03/17 06:55:16;;;;;;;228.55;23.75;;;;;;;2.22;73.94;100048.62;1800672;79;21176;-59
2021/03/17 06:57:53;;;;;;;199.38;33.45;;;;;;;2.17;73.99;100051.93;1799965;79;21557;-56
2021/03/17 07:00:35;;;;;;;194.57;23.47;;;;;;;2.12;74.19;100045.73;1801257;79;21302;-57
2021/03/17 07:03:16;;;;;;;270.25;34.78;;;;;;;2.16;74.39;100045.92;1800105;79;21446;-60
2021/03/17 07:05:49;;;;;;;211.25;30.55;;;;;;;2.18;74.48;100044.53;1801428;79;21286;-56
2021/03/17 07:08:31;;;;;;;204.78;23.60;;;;;;;2.18;74.53;100035.05;1800293;79;21223;-58
2021/03/17 07:14:59;;;;;;;191.77;20.10;;;;;;;2.23;74.81;100036.90;1801327;79;21120;-55
2021/03/17 07:17:32;;;;;;;228.25;23.32;;;;;;;2.20;74.96;100044.02;1749133;79;21621;-57
2021/03/17 07:20:09;;;;;;;221.05;20.17;;;;;;;2.20;75.10;100040.95;1801986;79;21210;-59
2021/03/17 07:22:42;;;;;;;191.40;23.07;;;;;;;2.20;75.17;100037.07;1800521;79;21286;-59
2021/03/17 07:25:17;;;;;;;184.20;20.15;;;;;;;2.24;75.36;100041.16;1801249;79;21410;-59
2021/03/17 07:27:57;;;;;;;263.20;24.25;;;;;;;2.28;75.51;100037.92;1800720;79;21342;-59
2021/03/17 07:30:30;;;;;;;183.35;18.90;;;;;;;2.32;75.61;100032.94;1801239;79;21294;-60
2021/03/17 07:33:06;;;;;;;;;;;;;;;2.31;75.66;100045.05;1803461;79;21230;-61
2021/03/17 07:35:39;;;;;;;226.95;19.32;;;;;;;2.27;76.08;100028.53;1783685;80;20198;-59
2021/03/17 07:38:15;;;;;;;168.10;17.25;;;;;;;2.26;76.59;100041.06;1800457;78;21565;-60
2021/03/17 07:40:49;;;;;;;233.65;24.23;;;;;;;2.29;76.67;100028.81;1801299;79;21970;-58
2021/03/17 07:43:25;;;;;;;188.90;21.52;;;;;;;2.35;76.82;100028.89;1800449;79;21303;-65
2021/03/17 07:46:00;;;;;;;206.40;21.93;;;;;;;2.40;76.75;100023.84;1801397;79;21171;-61
2021/03/17 07:48:33;;;;;;;226.02;25.23;;;;;;;2.40;76.84;100025.12;1772532;79;21443;-58
2021/03/17 07:51:07;;;;;;;186.00;19.95;;;;;;;2.38;76.92;100030.85;1801200;79;22098;-61
2021/03/17 07:53:40;;;;;;;196.85;20.88;;;;;;;2.44;77.16;100016.27;1800263;79;21186;-61
2021/03/17 07:56:14;;;;;;;196.45;20.72;;;;;;;2.52;77.11;100024.86;1799777;79;21375;-57
2021/03/17 07:58:51;;;;;;;197.87;19.05;;;;;;;2.61;77.05;100026.89;1800198;79;21196;-59
2021/03/17 08:01:28;;;;;;;191.15;19.27;;;;;;;2.67;76.75;100027.34;1801419;79;21337;-57
2021/03/17 08:04:01;;;;;;;184.75;19.98;;;;;;;2.74;76.78;100022.66;1772330;79;22122;-58
2021/03/17 08:06:36;;;;;;;202.70;20.55;;;;;;;2.81;76.58;100015.36;1773434;79;21302;-58
2021/03/17 08:09:13;;;;;;;193.28;21.70;;;;;;;2.86;76.69;100021.09;1799294;79;21318;-57
2021/03/17 08:11:48;;;;;;;204.50;21.15;;;;;;;2.94;76.56;100033.91;1801027;79;21505;-57
2021/03/17 08:14:21;;;;;;;159.55;17.25;;;;;;;2.99;76.39;100019.40;1799700;79;21329;-57
2021/03/17 08:16:54;;;;;;;170.65;18.67;;;;;;;3.00;75.99;100024.50;1801548;79;21462;-59
2021/03/17 08:19:29;;;;;;;164.15;18.25;;;;;;;3.04;76.15;100018.20;1799825;79;21589;-57
2021/03/17 08:22:05;;;;;;;176.55;18.73;;;;;;;3.07;76.08;100023.19;1799361;79;21257;-59
2021/03/17 08:24:42;;;;;;;164.82;19.42;;;;;;;3.10;76.02;100022.17;1799702;79;21294;-58
2021/03/17 08:27:20;;;;;;;147.10;19.17;;;;;;;3.11;76.06;100022.52;1801289;79;21159;-58
2021/03/17 08:30:13;;;;;;;151.82;16.90;;;;;;;3.13;76.21;100021.51;1799840;79;21316;-58
2021/03/17 08:33:02;;;;;;;129.38;15.95;;;;;;;3.17;75.91;100016.53;1801469;79;21998;-57
2021/03/17 08:36:14;;;;;;;131.15;16.52;;;;;;;3.17;75.55;100017.83;1802123;79;21168;-55
2021/03/17 08:38:58;;;;;;;127.97;15.60;;;;;;;3.18;75.41;100023.80;1801654;78;21363;-56
2021/03/17 08:41:46;;;;;;;157.80;15.90;;;;;;;3.24;75.26;100014.39;1813524;79;21296;-56
2021/03/17 08:44:25;;;;;;;151.53;17.48;;;;;;;3.28;75.46;100004.20;1829295;78;21307;-57
2021/03/17 08:47:14;;;;;;;116.15;15.32;;;;;;;3.38;75.79;100005.30;1815052;79;21291;-59
2021/03/17 08:49:52;;;;;;;151.10;16.93;;;;;;;3.45;75.15;100001.84;1828910;78;21185;-57
2021/03/17 08:52:41;;;;;;;126.75;14.95;;;;;;;3.47;75.21;100008.59;1815295;79;21284;-59
2021/03/17 08:55:22;;;;;;;126.40;17.00;;;;;;;3.47;74.80;100007.30;1821958;78;21585;-59
2021/03/17 08:58:01;;;;;;;146.80;18.43;;;;;;;3.43;74.74;100002.41;1813162;79;21216;-62
2021/03/17 09:00:52;;;;;;;134.25;16.45;;;;;;;3.32;74.97;99996.61;1830374;78;21415;-60
2021/03/17 09:03:46;;;;;;;149.70;17.20;;;;;;;3.31;74.95;99998.84;1814741;79;21516;-58
2021/03/17 09:06:25;;;;;;;104.23;14.23;;;;;;;3.33;75.25;100008.17;1830176;78;21449;-60
2021/03/17 09:09:08;;;;;;;131.85;15.75;;;;;;;3.39;75.00;99996.62;1814531;79;22078;-60
2021/03/17 09:11:49;;;;;;;143.65;16.87;;;;;;;3.44;75.12;100000.20;1827214;78;21302;-59
2021/03/17 09:14:26;;;;;;;150.65;17.67;;;;;;;3.47;74.89;100003.41;1814600;79;21256;-60
2021/03/17 09:17:23;;;;;;;119.45;16.85;;;;;;;3.46;74.97;100000.48;1830174;78;21196;-59
2021/03/17 09:20:06;;;;;;;126.15;15.30;;;;;;;3.48;75.14;100004.25;1814000;79;21494;-58
2021/03/17 09:23:02;;;;;;;142.77;16.48;;;;;;;3.54;75.32;99994.78;1830345;78;22191;-58
2021/03/17 09:25:52;;;;;;;121.55;15.55;;;;;;;3.62;75.56;100002.44;1814625;79;21475;-68
2021/03/17 09:28:35;;;;;;;131.52;16.27;;;;;;;3.72;75.55;100004.81;1830213;78;21294;-68
2021/03/17 09:31:11;;;;;;;145.45;17.80;;;;;;;3.71;75.12;99993.24;1814897;79;22045;-70
2021/03/17 09:33:45;;;;;;;133.03;16.00;;;;;;;3.70;75.33;99992.89;1830360;78;21331;-68
2021/03/17 09:36:27;;;;;;;130.40;16.37;;;;;;;3.65;75.57;99991.90;1813276;79;21194;-67
2021/03/17 09:39:02;;;;;;;123.33;17.17;;;;;;;3.65;75.52;99991.06;1830316;78;21173;-66
2021/03/17 09:41:35;;;;;;;109.03;14.03;;;;;;;3.64;75.64;99986.34;1829483;78;21494;-64
2021/03/17 09:44:10;;;;;;;108.78;13.98;;;;;;;3.70;75.82;99989.81;1814899;79;21453;-65
2021/03/17 09:46:48;;;;;;;97.02;11.95;;;;;;;3.77;75.74;99988.52;1830305;78;22111;-65
2021/03/17 09:49:27;;;;;;;90.50;13.10;;;;;;;3.81;75.66;99974.44;1814631;79;21562;-65
2021/03/17 09:52:04;;;;;;;97.88;16.15;;;;;;;3.87;75.62;99985.67;1830211;78;22095;-70
2021/03/17 09:54:37;;;;;;;93.40;15.23;;;;;;;3.90;75.45;99981.59;1813419;79;21311;-66
2021/03/17 09:57:11;;;;;;;98.80;13.20;;;;;;;3.91;75.50;99988.45;1830165;78;21322;-65
2021/03/17 09:59:45;;;;;;;;;;;;;;;3.95;75.38;99982.58;1817507;79;21424;-62
2021/03/17 10:02:28;;;;;;;90.60;13.65;;;;;;;3.86;74.84;99986.62;1815113;79;20776;-62
2021/03/17 10:05:02;;;;;;;95.70;14.40;;;;;;;3.72;74.84;99989.28;1829926;78;22129;-60
2021/03/17 10:07:35;;;;;;;88.45;12.07;;;;;;;3.66;75.08;99985.78;1830568;78;21160;-59
2021/03/17 10:10:09;;;;;;;93.03;11.85;;;;;;;3.67;75.22;99996.51;1814691;79;21772;-59
2021/03/17 10:12:43;;;;;;;101.87;15.03;;;;;;;3.62;75.06;99992.55;1830482;78;21522;-62
2021/03/17 10:15:23;;;;;;;89.85;12.50;;;;;;;3.58;75.27;99991.94;1814189;79;21574;-60
2021/03/17 10:17:58;;;;;;;94.80;13.03;;;;;;;3.54;75.32;99991.73;1829867;78;21579;-59
2021/03/17 10:20:31;;;;;;;97.33;12.65;;;;;;;3.53;75.46;99998.31;1814249;79;22124;-60
2021/03/17 10:23:06;;;;;;;89.72;13.93;;;;;;;3.47;75.31;99995.65;1830103;78;22122;-61
2021/03/17 10:25:41;;;;;;;88.07;11.55;;;;;;;3.42;75.57;99991.23;1814171;79;21303;-60
2021/03/17 10:32:26;;;;;;;71.70;11.05;;;;;;;3.38;75.91;99988.02;1814914;79;21133;-60
2021/03/17 10:35:02;;;;;;;;;;;;;;;3.45;76.16;99979.84;1832605;78;21268;-60
2021/03/17 10:37:35;;;;;;;74.12;14.13;;;;;;;3.46;76.20;99980.23;1814726;79;20258;-61
2021/03/17 10:40:15;;;;;;;79.40;12.40;;;;;;;3.45;76.30;99981.98;1830459;78;21291;-60
2021/03/17 10:42:56;;;;;;;76.60;12.55;;;;;;;3.44;76.30;99972.55;1814030;79;21495;-60
2021/03/17 10:45:48;;;;;;;63.17;11.35;;;;;;;3.45;76.42;99974.67;1830146;78;21589;-64
2021/03/17 10:52:43;;;;;;;74.62;11.70;;;;;;;3.44;76.48;99971.73;1829997;78;22173;-58
2021/03/17 10:55:21;;;;;;;57.70;10.63;;;;;;;3.45;76.42;99970.80;1814260;79;21196;-65
2021/03/17 10:58:14;;;;;;;57.05;9.08;;;;;;;3.46;76.43;99971.17;1830279;78;21262;-63
2021/03/17 11:00:53;;;;;;;64.77;10.40;;;;;;;3.51;76.53;99975.59;1814719;79;21194;-64
2021/03/17 11:03:38;;;;;;;59.08;9.55;;;;;;;3.50;76.35;99973.92;1830389;78;21278;-67
2021/03/17 11:06:20;;;;;;;55.60;10.28;;;;;;;3.53;76.56;99975.86;1814646;79;21300;-57
2021/03/17 11:09:07;;;;;;;48.80;9.48;;;;;;;3.57;76.41;99972.14;1819809;78;21279;-66
2021/03/17 11:11:54;;;;;;;47.33;10.55;;;;;;;3.56;76.49;99965.78;1796888;79;22170;-60
2021/03/17 11:14:36;;;;;;;64.70;14.53;;;;;;;3.58;76.56;99958.28;1797642;79;21331;-60
2021/03/17 11:17:10;;;;;;;49.13;12.53;;;;;;;3.63;76.45;99964.45;1795897;79;21486;-64
2021/03/17 11:19:46;;;;;;;47.03;10.48;;;;;;;3.65;76.37;99969.06;1781233;80;21997;-58
2021/03/17 11:22:34;;;;;;;92.02;42.35;;;;;;;3.61;76.33;99964.98;1777090;80;22034;-67
2021/03/17 11:25:09;;;;;;;76.92;30.82;;;;;;;3.57;76.24;99969.55;1778047;80;21591;-62
2021/03/17 11:27:43;;;;;;;56.68;12.60;;;;;;;3.55;76.43;99970.12;1776819;80;21369;-61
2021/03/17 11:30:16;;;;;;;;;;;;;;;3.56;76.51;99965.78;1780717;80;21237;-59
2021/03/17 11:32:49;;;;;;;60.78;15.75;;;;;;;3.55;76.32;99973.16;1776996;80;20666;-59
2021/03/17 11:35:23;;;;;;;69.12;12.88;;;;;;;3.46;76.39;99972.47;1778154;80;21320;-59
2021/03/17 11:37:56;;;;;;;48.68;12.63;;;;;;;3.41;76.31;99974.05;1776946;80;21328;-60
2021/03/17 11:40:33;;;;;;;60.58;10.60;;;;;;;3.33;76.31;99969.36;1778164;80;21582;-58
2021/03/17 11:43:13;;;;;;;46.80;9.53;;;;;;;3.26;76.48;99972.43;1774762;80;21495;-59
2021/03/17 11:45:47;;;;;;;56.60;11.30;;;;;;;3.20;76.57;99966.37;1737888;82;21332;-60
2021/03/17 11:48:22;;;;;;;68.45;11.15;;;;;;;3.19;76.77;99965.98;1738316;82;22124;-57
2021/03/17 11:50:56;;;;;;;51.33;11.97;;;;;;;3.17;76.69;99969.14;1739985;82;21313;-57
2021/03/17 11:53:29;;;;;;;55.78;11.00;;;;;;;3.10;76.60;99961.40;1738591;82;22138;-58
2021/03/17 11:56:02;;;;;;;57.27;11.63;;;;;;;3.04;76.80;99969.06;1738423;82;21221;-57
2021/03/17 11:58:39;;;;;;;46.50;9.33;;;;;;;3.03;76.89;99966.12;1739119;82;21358;-57
2021/03/17 12:01:14;;;;;;;57.93;9.93;;;;;;;3.04;76.99;99970.36;1739401;82;21660;-59
2021/03/17 12:03:52;;;;;;;50.80;11.03;;;;;;;3.00;76.94;99962.44;1739577;82;21899;-61
2021/03/17 12:06:25;;;;;;;47.40;9.70;;;;;;;3.00;77.11;99957.72;1739604;82;22157;-59
2021/03/17 12:08:59;;;;;;;59.58;10.35;;;;;;;3.02;77.18;99959.73;1739627;82;22014;-62
2021/03/17 12:11:33;;;;;;;58.85;10.82;;;;;;;3.06;77.39;99956.87;1739708;82;22119;-65
2021/03/17 12:14:06;;;;;;;49.75;10.98;;;;;;;3.12;77.27;99950.03;1739756;82;21172;-59
2021/03/17 12:16:40;;;;;;;56.23;11.75;;;;;;;3.13;77.21;99947.80;1739615;82;21308;-62
2021/03/17 12:19:15;;;;;;;55.05;10.58;;;;;;;3.17;77.12;99948.45;1739693;82;21304;-63
2021/03/17 12:21:49;;;;;;;51.95;10.80;;;;;;;3.14;76.97;99941.70;1739944;82;21575;-62